PWSweather.com
Personal Weather Stations
Station Observations
KMNGREYC2
Grey Cloud Island, Grey Cloud Island, MN 55071

Grey Cloud IslandGrey Cloud Island, MN 55071

Lat: 44.799333, Lon: -92.987851

Elevation: 700

Station Type: Davis VP2

www.jagielski.com/weather/conditions.htm

High Low Average
Temperature 5.6°F-14.7°C -11.9°F-24.4°C -6.1°F-21.2°C
Dew Point -6.5°F-21.4°C -17.0°F-27.2°C -12.9°F-24.9°C
Winds 5.0 mph 8.0 kmh Calm Calm 1.0 mph W1.6 kmh W
Wind Gusts 8.0 mph12.9 kmh -- 4.0 mph6.4 kmh
Humidity 81% 56% 72%
Pressure 30.86 in1045.0 mb 30.72 in1040.3 mb -
Precipitation 0.00 in0.0 mm - -
Hour Temp Dew Point Humidity Winds Wind Gusts Pressure Precip Precip Rate Daily Precip Total
12:00 AM -10.4°F-23.6°C -15.9°F-26.6°C 76% 3.0 mph WNW4.8 kmh WNW 4.0 mph6.4 kmh 30.80 in1043.0 mb 0.00 in0.0 mm 0.00 in0.0 mm 0.00 in0.0 mm
12:15 AM -10.2°F-23.4°C -15.4°F-26.3°C 77% 1.0 mph WNW1.6 kmh WNW 6.0 mph9.7 kmh 30.80 in1043.0 mb 0.00 in0.0 mm 0.00 in0.0 mm 0.00 in0.0 mm
12:30 AM -10.0°F-23.3°C -15.5°F-26.4°C 76% 2.0 mph WNW3.2 kmh WNW 5.0 mph8.0 kmh 30.80 in1043.0 mb 0.00 in0.0 mm 0.00 in0.0 mm 0.00 in0.0 mm
12:45 AM -9.9°F-23.3°C -15.4°F-26.3°C 76% 5.0 mph WNW8.0 kmh WNW 7.0 mph11.3 kmh 30.80 in1043.0 mb 0.00 in0.0 mm 0.00 in0.0 mm 0.00 in0.0 mm
01:00 AM -9.8°F-23.2°C -15.3°F-26.3°C 76% 3.0 mph WNW4.8 kmh WNW 7.0 mph11.3 kmh 30.80 in1043.0 mb 0.00 in0.0 mm 0.00 in0.0 mm 0.00 in0.0 mm
01:15 AM -9.8°F-23.2°C -15.3°F-26.3°C 76% Calm Calm 7.0 mph11.3 kmh 30.80 in1043.0 mb 0.00 in0.0 mm 0.00 in0.0 mm 0.00 in0.0 mm
01:30 AM -9.8°F-23.2°C -15.3°F-26.3°C 76% Calm Calm 3.0 mph4.8 kmh 30.80 in1043.0 mb 0.00 in0.0 mm 0.00 in0.0 mm 0.00 in0.0 mm
01:45 AM -9.9°F-23.3°C -15.6°F-26.4°C 75% 1.0 mph WNW1.6 kmh WNW 4.0 mph6.4 kmh 30.81 in1043.3 mb 0.00 in0.0 mm 0.00 in0.0 mm 0.00 in0.0 mm
02:00 AM -10.0°F-23.3°C -15.5°F-26.4°C 76% Calm Calm 4.0 mph6.4 kmh 30.81 in1043.3 mb 0.00 in0.0 mm 0.00 in0.0 mm 0.00 in0.0 mm
02:15 AM -10.1°F-23.4°C -15.6°F-26.4°C 76% Calm Calm 7.0 mph11.3 kmh 30.81 in1043.3 mb 0.00 in0.0 mm 0.00 in0.0 mm 0.00 in0.0 mm
02:30 AM -10.2°F-23.4°C -15.7°F-26.5°C 76% 1.0 mph WNW1.6 kmh WNW 1.0 mph1.6 kmh 30.82 in1043.7 mb 0.00 in0.0 mm 0.00 in0.0 mm 0.00 in0.0 mm
02:45 AM -10.3°F-23.5°C -15.8°F-26.6°C 76% 1.0 mph WNW1.6 kmh WNW 6.0 mph9.7 kmh 30.82 in1043.7 mb 0.00 in0.0 mm 0.00 in0.0 mm 0.00 in0.0 mm
03:00 AM -10.3°F-23.5°C -15.5°F-26.4°C 77% 1.0 mph WNW1.6 kmh WNW 4.0 mph6.4 kmh 30.82 in1043.7 mb 0.00 in0.0 mm 0.00 in0.0 mm 0.00 in0.0 mm
03:15 AM -10.4°F-23.6°C -15.6°F-26.4°C 77% 1.0 mph WNW1.6 kmh WNW 7.0 mph11.3 kmh 30.81 in1043.3 mb 0.00 in0.0 mm 0.00 in0.0 mm 0.00 in0.0 mm
03:30 AM -10.3°F-23.5°C -15.5°F-26.4°C 77% Calm Calm 2.0 mph3.2 kmh 30.81 in1043.3 mb 0.00 in0.0 mm 0.00 in0.0 mm 0.00 in0.0 mm
03:45 AM -10.3°F-23.5°C -15.5°F-26.4°C 77% 2.0 mph WNW3.2 kmh WNW 5.0 mph8.0 kmh 30.82 in1043.7 mb 0.00 in0.0 mm 0.00 in0.0 mm 0.00 in0.0 mm
04:00 AM -10.3°F-23.5°C -15.5°F-26.4°C 77% Calm Calm 4.0 mph6.4 kmh 30.82 in1043.7 mb 0.00 in0.0 mm 0.00 in0.0 mm 0.00 in0.0 mm
04:15 AM -10.4°F-23.6°C -15.6°F-26.4°C 77% 1.0 mph NW1.6 kmh NW 4.0 mph6.4 kmh 30.82 in1043.7 mb 0.00 in0.0 mm 0.00 in0.0 mm 0.00 in0.0 mm
04:30 AM -10.5°F-23.6°C -15.7°F-26.5°C 77% 3.0 mph NW4.8 kmh NW 5.0 mph8.0 kmh 30.82 in1043.7 mb 0.00 in0.0 mm 0.00 in0.0 mm 0.00 in0.0 mm
04:45 AM -10.6°F-23.7°C -15.8°F-26.6°C 77% 3.0 mph WNW4.8 kmh WNW 7.0 mph11.3 kmh 30.82 in1043.7 mb 0.00 in0.0 mm 0.00 in0.0 mm 0.00 in0.0 mm
05:00 AM -10.7°F-23.7°C -15.9°F-26.6°C 77% 3.0 mph WNW4.8 kmh WNW 4.0 mph6.4 kmh 30.82 in1043.7 mb 0.00 in0.0 mm 0.00 in0.0 mm 0.00 in0.0 mm
05:15 AM -10.7°F-23.7°C -15.9°F-26.6°C 77% 1.0 mph WNW1.6 kmh WNW 5.0 mph8.0 kmh 30.82 in1043.7 mb 0.00 in0.0 mm 0.00 in0.0 mm 0.00 in0.0 mm
05:30 AM -10.8°F-23.8°C -16.0°F-26.7°C 77% Calm Calm 6.0 mph9.7 kmh 30.82 in1043.7 mb 0.00 in0.0 mm 0.00 in0.0 mm 0.00 in0.0 mm
05:45 AM -10.9°F-23.8°C -16.1°F-26.7°C 77% 2.0 mph WNW3.2 kmh WNW 6.0 mph9.7 kmh 30.82 in1043.7 mb 0.00 in0.0 mm 0.00 in0.0 mm 0.00 in0.0 mm
06:00 AM -10.9°F-23.8°C -16.1°F-26.7°C 77% 2.0 mph WNW3.2 kmh WNW 2.0 mph3.2 kmh 30.82 in1043.7 mb 0.00 in0.0 mm 0.00 in0.0 mm 0.00 in0.0 mm
06:15 AM -11.1°F-23.9°C -16.3°F-26.8°C 77% Calm Calm 5.0 mph8.0 kmh 30.82 in1043.7 mb 0.00 in0.0 mm 0.00 in0.0 mm 0.00 in0.0 mm
06:30 AM -11.1°F-23.9°C -16.3°F-26.8°C 77% 2.0 mph WNW3.2 kmh WNW 4.0 mph6.4 kmh 30.82 in1043.7 mb 0.00 in0.0 mm 0.00 in0.0 mm 0.00 in0.0 mm
06:45 AM -11.2°F-24.0°C -16.4°F-26.9°C 77% 2.0 mph WNW3.2 kmh WNW 6.0 mph9.7 kmh 30.83 in1044.0 mb 0.00 in0.0 mm 0.00 in0.0 mm 0.00 in0.0 mm
07:00 AM -11.3°F-24.1°C -16.2°F-26.8°C 78% 3.0 mph WNW4.8 kmh WNW 3.0 mph4.8 kmh 30.83 in1044.0 mb 0.00 in0.0 mm 0.00 in0.0 mm 0.00 in0.0 mm
07:15 AM -11.3°F-24.1°C -16.2°F-26.8°C 78% Calm Calm 3.0 mph4.8 kmh 30.83 in1044.0 mb 0.00 in0.0 mm 0.00 in0.0 mm 0.00 in0.0 mm
07:30 AM -11.3°F-24.1°C -16.5°F-26.9°C 77% 1.0 mph WNW1.6 kmh WNW 2.0 mph3.2 kmh 30.83 in1044.0 mb 0.00 in0.0 mm 0.00 in0.0 mm 0.00 in0.0 mm
07:45 AM -11.5°F-24.2°C -16.7°F-27.1°C 77% Calm Calm 3.0 mph4.8 kmh 30.84 in1044.4 mb 0.00 in0.0 mm 0.00 in0.0 mm 0.00 in0.0 mm
08:00 AM -11.7°F-24.3°C -16.9°F-27.2°C 77% Calm Calm 2.0 mph3.2 kmh 30.84 in1044.4 mb 0.00 in0.0 mm 0.00 in0.0 mm 0.00 in0.0 mm
08:15 AM -11.8°F-24.3°C -17.0°F-27.2°C 77% 1.0 mph WNW1.6 kmh WNW 4.0 mph6.4 kmh 30.84 in1044.4 mb 0.00 in0.0 mm 0.00 in0.0 mm 0.00 in0.0 mm
08:30 AM -11.9°F-24.4°C -16.8°F-27.1°C 78% Calm Calm 2.0 mph3.2 kmh 30.84 in1044.4 mb 0.00 in0.0 mm 0.00 in0.0 mm 0.00 in0.0 mm
08:45 AM -11.7°F-24.3°C -16.6°F-27.0°C 78% Calm Calm 5.0 mph8.0 kmh 30.85 in1044.7 mb 0.00 in0.0 mm 0.00 in0.0 mm 0.00 in0.0 mm
09:00 AM -11.1°F-23.9°C -15.8°F-26.6°C 79% 1.0 mph NW1.6 kmh NW 5.0 mph8.0 kmh 30.84 in1044.4 mb 0.00 in0.0 mm 0.00 in0.0 mm 0.00 in0.0 mm
09:15 AM -10.3°F-23.5°C -15.3°F-26.3°C 78% 2.0 mph NW3.2 kmh NW 5.0 mph8.0 kmh 30.85 in1044.7 mb 0.00 in0.0 mm 0.00 in0.0 mm 0.00 in0.0 mm
09:30 AM -9.6°F-23.1°C -14.6°F-25.9°C 78% Calm Calm 3.0 mph4.8 kmh 30.85 in1044.7 mb 0.00 in0.0 mm 0.00 in0.0 mm 0.00 in0.0 mm
09:45 AM -8.8°F-22.7°C -14.1°F-25.6°C 77% 1.0 mph NW1.6 kmh NW 5.0 mph8.0 kmh 30.85 in1044.7 mb 0.00 in0.0 mm 0.00 in0.0 mm 0.00 in0.0 mm
10:00 AM -7.9°F-22.2°C -13.4°F-25.2°C 76% 1.0 mph NW1.6 kmh NW 4.0 mph6.4 kmh 30.85 in1044.7 mb 0.00 in0.0 mm 0.00 in0.0 mm 0.00 in0.0 mm
10:15 AM -7.0°F-21.7°C -12.8°F-24.9°C 75% 1.0 mph NNW1.6 kmh NNW 6.0 mph9.7 kmh 30.85 in1044.7 mb 0.00 in0.0 mm 0.00 in0.0 mm 0.00 in0.0 mm
10:30 AM -5.8°F-21.0°C -12.2°F-24.6°C 73% 3.0 mph N4.8 kmh N 6.0 mph9.7 kmh 30.86 in1045.0 mb 0.00 in0.0 mm 0.00 in0.0 mm 0.00 in0.0 mm
10:45 AM -4.2°F-20.1°C -10.9°F-23.8°C 72% 3.0 mph NW4.8 kmh NW 8.0 mph12.9 kmh 30.86 in1045.0 mb 0.00 in0.0 mm 0.00 in0.0 mm 0.00 in0.0 mm
11:00 AM -2.7°F-19.3°C -10.3°F-23.5°C 69% 2.0 mph NW3.2 kmh NW 4.0 mph6.4 kmh 30.85 in1044.7 mb 0.00 in0.0 mm 0.00 in0.0 mm 0.00 in0.0 mm
11:15 AM -2.0°F-18.9°C -10.3°F-23.5°C 67% Calm Calm 6.0 mph9.7 kmh 30.85 in1044.7 mb 0.00 in0.0 mm 0.00 in0.0 mm 0.00 in0.0 mm
11:30 AM -1.6°F-18.7°C -10.2°F-23.4°C 66% 1.0 mph W1.6 kmh W 7.0 mph11.3 kmh 30.84 in1044.4 mb 0.00 in0.0 mm 0.00 in0.0 mm 0.00 in0.0 mm
11:45 AM -1.3°F-18.5°C -9.9°F-23.3°C 66% 4.0 mph WNW6.4 kmh WNW 7.0 mph11.3 kmh 30.83 in1044.0 mb 0.00 in0.0 mm 0.00 in0.0 mm 0.00 in0.0 mm
12:00 PM -1.5°F-18.6°C -10.4°F-23.6°C 65% 2.0 mph WNW3.2 kmh WNW 6.0 mph9.7 kmh 30.83 in1044.0 mb 0.00 in0.0 mm 0.00 in0.0 mm 0.00 in0.0 mm
12:15 PM -1.4°F-18.6°C -10.3°F-23.5°C 65% 4.0 mph N6.4 kmh N 7.0 mph11.3 kmh 30.82 in1043.7 mb 0.00 in0.0 mm 0.00 in0.0 mm 0.00 in0.0 mm
12:30 PM -1.3°F-18.5°C -9.9°F-23.3°C 66% 3.0 mph WNW4.8 kmh WNW 8.0 mph12.9 kmh 30.82 in1043.7 mb 0.00 in0.0 mm 0.00 in0.0 mm 0.00 in0.0 mm
12:45 PM -0.4°F-18.0°C -9.3°F-22.9°C 65% Calm Calm 8.0 mph12.9 kmh 30.81 in1043.3 mb 0.00 in0.0 mm 0.00 in0.0 mm 0.00 in0.0 mm
01:00 PM 0.5°F-17.5°C -8.8°F-22.7°C 64% 2.0 mph NW3.2 kmh NW 5.0 mph8.0 kmh 30.80 in1043.0 mb 0.00 in0.0 mm 0.00 in0.0 mm 0.00 in0.0 mm
01:15 PM 1.5°F-16.9°C -8.5°F-22.5°C 62% 5.0 mph WNW8.0 kmh WNW 5.0 mph8.0 kmh 30.80 in1043.0 mb 0.00 in0.0 mm 0.00 in0.0 mm 0.00 in0.0 mm
01:30 PM 2.7°F-16.3°C -7.7°F-22.1°C 61% 2.0 mph WNW3.2 kmh WNW 4.0 mph6.4 kmh 30.79 in1042.7 mb 0.00 in0.0 mm 0.00 in0.0 mm 0.00 in0.0 mm
01:45 PM 3.2°F-16.0°C -7.5°F-21.9°C 60% 2.0 mph W3.2 kmh W 6.0 mph9.7 kmh 30.79 in1042.7 mb 0.00 in0.0 mm 0.00 in0.0 mm 0.00 in0.0 mm
02:00 PM 3.6°F-15.8°C -7.2°F-21.8°C 60% 5.0 mph WNW8.0 kmh WNW 6.0 mph9.7 kmh 30.78 in1042.3 mb 0.00 in0.0 mm 0.00 in0.0 mm 0.00 in0.0 mm
02:15 PM 4.4°F-15.3°C -6.8°F-21.6°C 59% 1.0 mph W1.6 kmh W 6.0 mph9.7 kmh 30.78 in1042.3 mb 0.00 in0.0 mm 0.00 in0.0 mm 0.00 in0.0 mm
02:30 PM 5.0°F-15.0°C -7.3°F-21.8°C 56% 1.0 mph W1.6 kmh W 4.0 mph6.4 kmh 30.78 in1042.3 mb 0.00 in0.0 mm 0.00 in0.0 mm 0.00 in0.0 mm
02:45 PM 5.4°F-14.8°C -6.5°F-21.4°C 57% 2.0 mph WNW3.2 kmh WNW 6.0 mph9.7 kmh 30.78 in1042.3 mb 0.00 in0.0 mm 0.00 in0.0 mm 0.00 in0.0 mm
03:00 PM 5.6°F-14.7°C -6.7°F-21.5°C 56% Calm Calm 5.0 mph8.0 kmh 30.78 in1042.3 mb 0.00 in0.0 mm 0.00 in0.0 mm 0.00 in0.0 mm
03:15 PM 4.9°F-15.1°C -7.4°F-21.9°C 56% 2.0 mph WNW3.2 kmh WNW 6.0 mph9.7 kmh 30.78 in1042.3 mb 0.00 in0.0 mm 0.00 in0.0 mm 0.00 in0.0 mm
03:30 PM 4.1°F-15.5°C -7.4°F-21.9°C 58% 4.0 mph W6.4 kmh W 4.0 mph6.4 kmh 30.78 in1042.3 mb 0.00 in0.0 mm 0.00 in0.0 mm 0.00 in0.0 mm
03:45 PM 3.3°F-15.9°C -7.8°F-22.1°C 59% Calm Calm 4.0 mph6.4 kmh 30.78 in1042.3 mb 0.00 in0.0 mm 0.00 in0.0 mm 0.00 in0.0 mm
04:00 PM 2.4°F-16.4°C -8.3°F-22.4°C 60% Calm Calm 5.0 mph8.0 kmh 30.78 in1042.3 mb 0.00 in0.0 mm 0.00 in0.0 mm 0.00 in0.0 mm
04:15 PM 1.6°F-16.9°C -8.7°F-22.6°C 61% Calm Calm 6.0 mph9.7 kmh 30.78 in1042.3 mb 0.00 in0.0 mm 0.00 in0.0 mm 0.00 in0.0 mm
04:30 PM 0.9°F-17.3°C -9.1°F-22.8°C 62% 1.0 mph WSW1.6 kmh WSW 6.0 mph9.7 kmh 30.78 in1042.3 mb 0.00 in0.0 mm 0.00 in0.0 mm 0.00 in0.0 mm
04:45 PM 0.3°F-17.6°C -9.0°F-22.8°C 64% Calm Calm 6.0 mph9.7 kmh 30.78 in1042.3 mb 0.00 in0.0 mm 0.00 in0.0 mm 0.00 in0.0 mm
05:00 PM -0.2°F-17.9°C -9.5°F-23.1°C 64% 1.0 mph WSW1.6 kmh WSW 2.0 mph3.2 kmh 30.78 in1042.3 mb 0.00 in0.0 mm 0.00 in0.0 mm 0.00 in0.0 mm
05:15 PM -0.8°F-18.2°C -9.7°F-23.2°C 65% Calm Calm 6.0 mph9.7 kmh 30.78 in1042.3 mb 0.00 in0.0 mm 0.00 in0.0 mm 0.00 in0.0 mm
05:30 PM -1.3°F-18.5°C -9.9°F-23.3°C 66% Calm Calm 1.0 mph1.6 kmh 30.78 in1042.3 mb 0.00 in0.0 mm 0.00 in0.0 mm 0.00 in0.0 mm
05:45 PM -1.8°F-18.8°C -10.4°F-23.6°C 66% Calm Calm 4.0 mph6.4 kmh 30.78 in1042.3 mb 0.00 in0.0 mm 0.00 in0.0 mm 0.00 in0.0 mm
06:00 PM -2.5°F-19.2°C -10.7°F-23.7°C 67% 1.0 mph WSW1.6 kmh WSW 2.0 mph3.2 kmh 30.77 in1042.0 mb 0.00 in0.0 mm 0.00 in0.0 mm 0.00 in0.0 mm
06:15 PM -2.8°F-19.3°C -10.4°F-23.6°C 69% Calm Calm 4.0 mph6.4 kmh 30.78 in1042.3 mb 0.00 in0.0 mm 0.00 in0.0 mm 0.00 in0.0 mm
06:30 PM -3.2°F-19.6°C -11.1°F-23.9°C 68% Calm Calm 3.0 mph4.8 kmh 30.78 in1042.3 mb 0.00 in0.0 mm 0.00 in0.0 mm 0.00 in0.0 mm
06:45 PM -3.9°F-19.9°C -11.5°F-24.2°C 69% Calm Calm 3.0 mph4.8 kmh 30.77 in1042.0 mb 0.00 in0.0 mm 0.00 in0.0 mm 0.00 in0.0 mm
07:00 PM -4.7°F-20.4°C -12.3°F-24.6°C 69% Calm Calm 2.0 mph3.2 kmh 30.77 in1042.0 mb 0.00 in0.0 mm 0.00 in0.0 mm 0.00 in0.0 mm
07:15 PM -5.5°F-20.8°C -12.7°F-24.8°C 70% Calm Calm 3.0 mph4.8 kmh 30.77 in1042.0 mb 0.00 in0.0 mm 0.00 in0.0 mm 0.00 in0.0 mm
07:30 PM -6.3°F-21.3°C -13.5°F-25.3°C 70% Calm Calm 3.0 mph4.8 kmh 30.77 in1042.0 mb 0.00 in0.0 mm 0.00 in0.0 mm 0.00 in0.0 mm
07:45 PM -6.8°F-21.6°C -13.7°F-25.4°C 71% Calm Calm 3.0 mph4.8 kmh 30.76 in1041.7 mb 0.00 in0.0 mm 0.00 in0.0 mm 0.00 in0.0 mm
08:00 PM -7.3°F-21.8°C -13.9°F-25.5°C 72% Calm Calm 1.0 mph1.6 kmh 30.76 in1041.7 mb 0.00 in0.0 mm 0.00 in0.0 mm 0.00 in0.0 mm
08:15 PM -7.7°F-22.1°C -14.0°F-25.6°C 73% Calm Calm 1.0 mph1.6 kmh 30.76 in1041.7 mb 0.00 in0.0 mm 0.00 in0.0 mm 0.00 in0.0 mm
08:30 PM -8.1°F-22.3°C -14.2°F-25.7°C 74% Calm Calm 1.0 mph1.6 kmh 30.75 in1041.3 mb 0.00 in0.0 mm 0.00 in0.0 mm 0.00 in0.0 mm
08:45 PM -8.5°F-22.5°C -14.5°F-25.8°C 74% 2.0 mph WSW3.2 kmh WSW 3.0 mph4.8 kmh 30.75 in1041.3 mb 0.00 in0.0 mm 0.00 in0.0 mm 0.00 in0.0 mm
09:00 PM -8.8°F-22.7°C -14.6°F-25.9°C 75% Calm Calm -- 30.75 in1041.3 mb 0.00 in0.0 mm 0.00 in0.0 mm 0.00 in0.0 mm
09:15 PM -9.0°F-22.8°C -14.8°F-26.0°C 75% Calm Calm 1.0 mph1.6 kmh 30.75 in1041.3 mb 0.00 in0.0 mm 0.00 in0.0 mm 0.00 in0.0 mm
09:30 PM -9.2°F-22.9°C -14.7°F-25.9°C 76% Calm Calm -- 30.74 in1041.0 mb 0.00 in0.0 mm 0.00 in0.0 mm 0.00 in0.0 mm
09:45 PM -9.4°F-23.0°C -14.6°F-25.9°C 77% Calm Calm -- 30.74 in1041.0 mb 0.00 in0.0 mm 0.00 in0.0 mm 0.00 in0.0 mm
10:00 PM -9.5°F-23.1°C -14.7°F-25.9°C 77% 1.0 mph WSW1.6 kmh WSW 2.0 mph3.2 kmh 30.74 in1041.0 mb 0.00 in0.0 mm 0.00 in0.0 mm 0.00 in0.0 mm
10:15 PM -9.4°F-23.0°C -14.4°F-25.8°C 78% Calm Calm 4.0 mph6.4 kmh 30.74 in1041.0 mb 0.00 in0.0 mm 0.00 in0.0 mm 0.00 in0.0 mm
10:30 PM -8.8°F-22.7°C -13.3°F-25.2°C 80% 1.0 mph WSW1.6 kmh WSW 2.0 mph3.2 kmh 30.74 in1041.0 mb 0.00 in0.0 mm 0.00 in0.0 mm 0.00 in0.0 mm
10:45 PM -8.1°F-22.3°C -12.4°F-24.7°C 81% Calm Calm 3.0 mph4.8 kmh 30.73 in1040.6 mb 0.00 in0.0 mm 0.00 in0.0 mm 0.00 in0.0 mm
11:00 PM -7.9°F-22.2°C -12.2°F-24.6°C 81% Calm Calm 1.0 mph1.6 kmh 30.73 in1040.6 mb 0.00 in0.0 mm 0.00 in0.0 mm 0.00 in0.0 mm
11:15 PM -7.9°F-22.2°C -12.4°F-24.7°C 80% Calm Calm 2.0 mph3.2 kmh 30.74 in1041.0 mb 0.00 in0.0 mm 0.00 in0.0 mm 0.00 in0.0 mm
11:30 PM -8.0°F-22.2°C -12.5°F-24.7°C 80% Calm Calm 2.0 mph3.2 kmh 30.72 in1040.3 mb 0.00 in0.0 mm 0.00 in0.0 mm 0.00 in0.0 mm
11:45 PM -7.8°F-22.1°C -12.1°F-24.5°C 81% Calm Calm 6.0 mph9.7 kmh 30.72 in1040.3 mb 0.00 in0.0 mm 0.00 in0.0 mm 0.00 in0.0 mm